Somerdale, Ohio
Current Conditions -  °F | °C
As of 2:53 PM on Sunday 23 Nov 2014 (Local Time) from KPHD Reporting Station
Few Clouds Few Clouds  
Wind Chill: 64°   Ceiling: Unl
Heat Index: 64°   Visibility: 10mi
Dew Point: 44°   Wind: 10mph
Humidity: 48%   Direction: 140°SE
Pressure: 29.83"   Gusts: NA
Location:  40.57°N, 81.36°W
Report Text: KPHD 231953Z AUTO 14009KT 10SM FEW041 18/07 A2983 RMK AO2 SLP101 T01780067
Loading
Personal Weather Stations






























Interactive Weather Map New forecast layout! Learn more

10-Day Weather Forecast

Advertisements
Track Severe Weather on mobile